createdAt,value
2018-06-17T00:02:20.375Z,3.67
2018-06-17T00:07:21.223Z,2.40
2018-06-17T00:09:48.823Z,2.10
2018-06-17T00:12:16.408Z,2.47
2018-06-17T00:14:43.948Z,2.50
2018-06-17T00:17:11.470Z,3.40
2018-06-17T00:19:39.039Z,3.60
2018-06-17T00:22:06.839Z,4.93
2018-06-17T00:24:34.410Z,4.17
2018-06-17T00:27:01.892Z,5.63
2018-06-17T00:29:29.439Z,4.17
2018-06-17T00:32:00.967Z,4.63
2018-06-17T00:34:28.536Z,3.50
2018-06-17T00:36:56.055Z,3.20
2018-06-17T00:39:23.646Z,3.10
2018-06-17T00:41:51.225Z,2.90
2018-06-17T00:44:18.850Z,3.30
2018-06-17T00:46:46.462Z,3.23
2018-06-17T00:49:14.023Z,2.80
2018-06-17T00:51:41.591Z,2.87
2018-06-17T00:54:09.139Z,3.47
2018-06-17T00:56:36.715Z,3.13
2018-06-17T00:59:04.442Z,3.20
2018-06-17T01:01:32.035Z,2.80
2018-06-17T01:03:59.689Z,3.60
2018-06-17T01:06:27.215Z,4.40
2018-06-17T01:08:54.753Z,3.43
2018-06-17T01:11:22.310Z,3.47
2018-06-17T01:13:49.857Z,3.03
2018-06-17T01:16:17.407Z,3.90
2018-06-17T01:18:45.746Z,5.20
2018-06-17T01:21:13.301Z,3.03
2018-06-17T01:23:40.858Z,2.93
2018-06-17T01:26:09.171Z,4.63
2018-06-17T01:28:38.266Z,6.23
2018-06-17T01:31:05.809Z,7.83
2018-06-17T01:33:33.603Z,9.80
2018-06-17T01:36:01.326Z,10.83
2018-06-17T01:38:29.223Z,9.93
2018-06-17T01:40:57.271Z,8.00
2018-06-17T01:43:24.813Z,7.97
2018-06-17T01:45:52.372Z,9.33
2018-06-17T01:48:19.918Z,11.47
2018-06-17T01:50:47.466Z,11.47
2018-06-17T01:53:14.990Z,9.60
2018-06-17T01:55:42.490Z,9.93
2018-06-17T01:58:10.175Z,10.57
2018-06-17T02:00:37.671Z,7.80
2018-06-17T02:03:10.798Z,9.43
2018-06-17T02:05:44.199Z,9.17
2018-06-17T02:08:17.391Z,5.60
2018-06-17T02:10:51.726Z,8.47
2018-06-17T02:13:19.257Z,9.70
2018-06-17T02:15:46.834Z,9.93
2018-06-17T02:18:14.346Z,10.90
2018-06-17T02:20:41.809Z,9.97
2018-06-17T02:23:09.653Z,8.00
2018-06-17T02:25:37.295Z,7.70
2018-06-17T02:28:05.033Z,7.13
2018-06-17T02:30:32.545Z,9.90
2018-06-17T02:33:00.362Z,9.30
2018-06-17T02:35:28.019Z,10.03
2018-06-17T02:37:55.526Z,8.50
2018-06-17T02:40:23.034Z,11.60
2018-06-17T02:42:50.572Z,7.73
2018-06-17T02:45:23.774Z,9.40
2018-06-17T02:47:57.105Z,9.33
2018-06-17T02:50:30.266Z,10.17
2018-06-17T02:53:03.566Z,9.83
2018-06-17T02:55:31.068Z,7.70
2018-06-17T02:57:58.541Z,9.27
2018-06-17T03:00:26.066Z,8.77
2018-06-17T03:02:53.608Z,9.13
2018-06-17T03:05:21.326Z,5.57
2018-06-17T03:07:48.868Z,11.00
2018-06-17T03:10:16.410Z,8.53
2018-06-17T03:12:43.934Z,9.50
2018-06-17T03:15:11.417Z,8.03
2018-06-17T03:17:38.918Z,8.67
2018-06-17T03:20:06.445Z,9.27
2018-06-17T03:22:34.027Z,11.03
2018-06-17T03:25:07.246Z,7.20
2018-06-17T03:27:40.499Z,6.80
2018-06-17T03:30:13.598Z,9.30
2018-06-17T03:32:46.829Z,8.23
2018-06-17T03:35:21.105Z,6.83
2018-06-17T03:37:48.633Z,5.70
2018-06-17T03:40:16.118Z,7.27
2018-06-17T03:42:43.626Z,7.00
2018-06-17T03:45:11.158Z,7.13
2018-06-17T03:47:38.673Z,6.80
2018-06-17T03:50:06.165Z,7.10
2018-06-17T03:52:33.732Z,6.10
2018-06-17T03:55:01.407Z,5.20
2018-06-17T03:57:28.950Z,8.07
2018-06-17T03:59:56.482Z,6.40
2018-06-17T04:02:23.957Z,6.60
2018-06-17T04:04:57.215Z,7.97
2018-06-17T04:07:24.790Z,7.33
2018-06-17T04:09:52.598Z,7.43
2018-06-17T04:12:20.138Z,5.90
2018-06-17T04:14:47.630Z,5.37
2018-06-17T04:17:15.322Z,8.83
2018-06-17T04:19:44.545Z,7.33
2018-06-17T04:22:12.379Z,8.47
2018-06-17T04:24:39.894Z,7.10
2018-06-17T04:27:08.010Z,7.13
2018-06-17T04:29:35.583Z,7.83
2018-06-17T04:32:03.098Z,7.57
2018-06-17T04:34:30.834Z,6.57
2018-06-17T04:36:58.342Z,8.37
2018-06-17T04:39:25.902Z,7.07
2018-06-17T04:41:53.691Z,5.87
2018-06-17T04:44:21.407Z,5.23
2018-06-17T04:46:52.953Z,6.47
2018-06-17T04:49:20.491Z,7.10
2018-06-17T04:51:47.977Z,5.80
2018-06-17T04:54:15.510Z,7.40
2018-06-17T04:56:43.020Z,5.83
2018-06-17T04:59:10.691Z,5.67
2018-06-17T05:01:38.254Z,5.07
2018-06-17T05:04:06.051Z,5.23
2018-06-17T05:06:33.592Z,5.50
2018-06-17T05:09:01.081Z,5.53
2018-06-17T05:11:28.601Z,5.60
2018-06-17T05:13:56.157Z,5.00
2018-06-17T05:16:23.636Z,4.10
2018-06-17T05:18:51.201Z,4.80
2018-06-17T05:21:18.662Z,3.40
2018-06-17T05:23:46.207Z,4.90
2018-06-17T05:26:13.737Z,4.23
2018-06-17T05:28:41.256Z,3.77
2018-06-17T05:31:08.841Z,3.73
2018-06-17T05:33:36.414Z,4.97
2018-06-17T05:36:04.110Z,3.73
2018-06-17T05:38:31.617Z,4.30
2018-06-17T05:40:59.112Z,4.93
2018-06-17T05:43:26.640Z,4.10
2018-06-17T05:45:54.322Z,3.80
2018-06-17T05:48:21.826Z,4.07
2018-06-17T05:50:49.361Z,4.47
2018-06-17T05:53:16.901Z,4.17
2018-06-17T05:55:44.520Z,3.77
2018-06-17T05:58:12.007Z,3.77
2018-06-17T06:00:39.526Z,3.73
2018-06-17T06:03:07.076Z,3.37
2018-06-17T06:05:34.594Z,3.97
2018-06-17T06:08:02.148Z,3.50
2018-06-17T06:10:29.641Z,2.87
2018-06-17T06:12:57.170Z,3.60
2018-06-17T06:15:24.713Z,3.20
2018-06-17T06:17:52.306Z,3.73
2018-06-17T06:20:19.797Z,3.23
2018-06-17T06:22:47.330Z,2.80
2018-06-17T06:25:14.872Z,3.50
2018-06-17T06:27:42.446Z,3.90
2018-06-17T06:30:09.953Z,3.60
2018-06-17T06:32:37.452Z,2.97
2018-06-17T06:35:04.954Z,3.63
2018-06-17T06:37:32.511Z,3.37
2018-06-17T06:40:00.027Z,3.70
2018-06-17T06:42:27.623Z,3.93
2018-06-17T06:44:55.134Z,3.33
2018-06-17T06:47:22.741Z,3.20
2018-06-17T06:49:50.263Z,2.90
2018-06-17T06:52:17.887Z,3.23
2018-06-17T06:54:45.423Z,2.83
2018-06-17T06:57:12.941Z,2.57
2018-06-17T06:59:40.490Z,2.43
2018-06-17T07:02:19.829Z,2.43
2018-06-17T07:04:58.738Z,2.70
2018-06-17T07:08:37.691Z,2.60
2018-06-17T07:11:05.152Z,2.83
2018-06-17T07:13:33.014Z,3.23
2018-06-17T07:16:12.283Z,2.63
2018-06-17T07:18:41.021Z,2.53
2018-06-17T07:21:09.100Z,2.50
2018-06-17T07:23:36.650Z,2.90
2018-06-17T07:26:26.321Z,2.87
2018-06-17T07:29:58.423Z,2.60
2018-06-17T07:32:25.913Z,2.63
2018-06-17T07:34:53.505Z,2.53
2018-06-17T07:37:21.026Z,2.30
2018-06-17T07:41:04.556Z,2.83
2018-06-17T07:43:32.085Z,2.60
2018-06-17T07:45:59.639Z,2.53
2018-06-17T07:49:54.164Z,2.73
2018-06-17T07:52:34.604Z,2.50
2018-06-17T07:55:02.142Z,2.30
2018-06-17T07:57:30.962Z,2.67
2018-06-17T07:59:58.501Z,3.07
2018-06-17T08:02:26.079Z,2.23
2018-06-17T08:04:53.726Z,2.03
2018-06-17T08:07:21.277Z,2.50
2018-06-17T08:09:48.969Z,2.07
2018-06-17T08:12:16.631Z,2.40
2018-06-17T08:14:44.177Z,2.10
2018-06-17T08:17:11.819Z,2.30
2018-06-17T08:19:39.775Z,2.33
2018-06-17T08:22:07.392Z,2.53
2018-06-17T08:24:35.369Z,2.53
2018-06-17T08:27:02.895Z,2.50
2018-06-17T08:29:30.763Z,2.20
2018-06-17T08:31:58.310Z,2.10
2018-06-17T08:34:26.040Z,2.63
2018-06-17T08:36:53.909Z,2.17
2018-06-17T08:39:22.497Z,2.33
2018-06-17T08:41:50.051Z,2.40
2018-06-17T08:44:18.100Z,1.63
2018-06-17T08:46:46.522Z,2.53
2018-06-17T08:49:14.530Z,2.73
2018-06-17T08:51:42.061Z,2.37
2018-06-17T08:54:09.683Z,2.43
2018-06-17T08:56:37.443Z,2.40
2018-06-17T08:59:05.303Z,2.13
2018-06-17T09:01:33.044Z,2.37
2018-06-17T09:04:00.731Z,1.70
2018-06-17T09:06:28.305Z,2.00
2018-06-17T09:08:56.371Z,2.37
2018-06-17T09:11:24.324Z,2.20
2018-06-17T09:13:53.038Z,2.27
2018-06-17T09:16:20.783Z,2.67
2018-06-17T09:18:48.818Z,2.40
2018-06-17T09:21:16.358Z,2.00
2018-06-17T09:23:43.950Z,2.40
2018-06-17T09:26:11.775Z,2.90
2018-06-17T09:28:39.338Z,2.30
2018-06-17T09:31:06.898Z,3.10
2018-06-17T09:33:34.493Z,2.67
2018-06-17T09:36:02.107Z,2.50
2018-06-17T09:38:29.833Z,2.30
2018-06-17T09:40:57.450Z,2.00
2018-06-17T09:43:25.005Z,2.37
2018-06-17T09:45:52.520Z,2.20
2018-06-17T09:48:20.089Z,2.73
2018-06-17T09:50:47.629Z,2.13
2018-06-17T09:53:15.161Z,2.10
2018-06-17T09:55:42.703Z,2.47
2018-06-17T09:58:10.219Z,2.27
2018-06-17T10:00:37.710Z,2.57
2018-06-17T10:03:05.266Z,2.20
2018-06-17T10:05:32.795Z,2.10
2018-06-17T10:08:00.586Z,2.53
2018-06-17T10:10:54.142Z,2.37
2018-06-17T10:13:22.838Z,2.70
2018-06-17T10:15:50.943Z,1.80
2018-06-17T10:18:19.297Z,1.87
2018-06-17T10:20:46.956Z,2.13
2018-06-17T10:23:14.598Z,2.30
2018-06-17T10:25:42.280Z,3.20
2018-06-17T10:28:10.566Z,2.07
2018-06-17T10:30:39.143Z,2.60
2018-06-17T10:33:07.847Z,2.43
2018-06-17T10:35:35.377Z,2.57
2018-06-17T10:38:02.933Z,2.07
2018-06-17T10:40:30.443Z,2.30
2018-06-17T10:42:58.005Z,2.63
2018-06-17T10:45:25.681Z,2.40
2018-06-17T10:47:53.210Z,2.67
2018-06-17T10:50:20.851Z,2.37
2018-06-17T10:52:48.383Z,2.47
2018-06-17T10:55:16.077Z,2.30
2018-06-17T10:57:44.463Z,2.03
2018-06-17T11:00:12.010Z,1.77
2018-06-17T11:02:39.594Z,1.90
2018-06-17T11:05:07.619Z,2.30
2018-06-17T11:07:35.723Z,2.30
2018-06-17T11:10:03.862Z,2.30
2018-06-17T11:12:31.742Z,2.40
2018-06-17T11:14:59.301Z,1.87
2018-06-17T11:17:26.825Z,2.27
2018-06-17T11:19:54.354Z,1.97
2018-06-17T11:22:22.209Z,2.00
2018-06-17T11:24:50.145Z,2.20
2018-06-17T11:27:17.796Z,2.33
2018-06-17T11:29:45.383Z,1.73
2018-06-17T11:32:13.063Z,1.90
2018-06-17T11:34:40.724Z,2.17
2018-06-17T11:37:08.282Z,2.00
2018-06-17T11:39:35.954Z,2.03
2018-06-17T11:42:03.622Z,1.82
2018-06-17T11:44:31.310Z,1.77
2018-06-17T11:46:58.839Z,1.83
2018-06-17T11:49:26.494Z,2.05
2018-06-17T11:51:54.067Z,2.37
2018-06-17T11:54:22.446Z,2.17
2018-06-17T11:56:50.006Z,2.23
2018-06-17T11:59:17.508Z,1.87
2018-06-17T12:01:45.223Z,1.70
2018-06-17T12:04:12.726Z,2.33
2018-06-17T12:06:40.225Z,2.13
2018-06-17T12:09:08.681Z,1.97
2018-06-17T12:11:36.478Z,1.93
2018-06-17T12:14:04.178Z,1.70
2018-06-17T12:16:31.766Z,2.07
2018-06-17T12:18:59.360Z,1.80
2018-06-17T12:21:26.953Z,1.90
2018-06-17T12:23:55.577Z,1.77
2018-06-17T12:26:23.198Z,1.60
2018-06-17T12:28:50.710Z,1.70
2018-06-17T12:31:18.413Z,2.03
2018-06-17T12:33:45.964Z,2.30
2018-06-17T12:36:13.498Z,1.60
2018-06-17T12:39:00.479Z,1.60
2018-06-17T12:41:39.394Z,1.70
2018-06-17T12:44:10.909Z,1.70
2018-06-17T12:46:38.402Z,1.43
2018-06-17T12:49:05.954Z,1.80
2018-06-17T12:51:33.516Z,1.67
2018-06-17T12:54:01.103Z,1.83
2018-06-17T12:56:28.618Z,1.87
2018-06-17T12:58:56.174Z,1.53
2018-06-17T13:01:23.730Z,2.00
2018-06-17T13:03:51.558Z,2.03
2018-06-17T13:06:19.239Z,1.70
2018-06-17T13:08:51.689Z,1.60
2018-06-17T13:11:19.348Z,1.60
2018-06-17T13:13:46.906Z,1.43
2018-06-17T13:16:14.487Z,1.87
2018-06-17T13:18:42.013Z,1.57
2018-06-17T13:21:09.643Z,1.87
2018-06-17T13:23:37.205Z,2.63
2018-06-17T13:26:04.801Z,1.63
2018-06-17T13:28:32.361Z,1.60
2018-06-17T13:30:59.922Z,1.87
2018-06-17T13:33:27.467Z,1.80
2018-06-17T13:35:54.972Z,1.27
2018-06-17T13:38:22.853Z,1.70
2018-06-17T13:40:50.381Z,1.47
2018-06-17T13:43:17.920Z,1.50
2018-06-17T13:45:45.474Z,1.70
2018-06-17T13:48:13.125Z,1.77
2018-06-17T13:50:40.645Z,1.53
2018-06-17T13:53:08.163Z,2.10
2018-06-17T13:55:35.741Z,1.47
2018-06-17T13:58:03.277Z,1.67
2018-06-17T14:00:30.757Z,1.60
2018-06-17T14:02:58.270Z,1.70
2018-06-17T14:05:25.834Z,1.97
2018-06-17T14:07:53.453Z,1.93
2018-06-17T14:10:21.024Z,1.93
2018-06-17T14:12:48.566Z,1.67
2018-06-17T14:15:16.153Z,1.73
2018-06-17T14:17:43.786Z,1.60
2018-06-17T14:20:11.305Z,1.40
2018-06-17T14:22:38.836Z,1.70
2018-06-17T14:25:06.439Z,1.57
2018-06-17T14:27:33.976Z,1.73
2018-06-17T14:30:01.854Z,1.53
2018-06-17T14:32:29.487Z,1.57
2018-06-17T14:34:57.048Z,1.17
2018-06-17T14:37:24.605Z,1.87
2018-06-17T14:39:52.194Z,1.60
2018-06-17T14:42:25.383Z,1.27
2018-06-17T14:45:57.614Z,1.50
2018-06-17T14:48:30.890Z,1.60
2018-06-17T14:51:04.194Z,1.50
2018-06-17T14:53:31.838Z,1.70
2018-06-17T14:55:59.353Z,1.70
2018-06-17T14:58:26.869Z,1.70
2018-06-17T15:00:54.397Z,1.53
2018-06-17T15:03:21.928Z,1.40
2018-06-17T15:05:49.744Z,1.57
2018-06-17T15:08:17.334Z,1.83
2018-06-17T15:10:44.882Z,1.40
2018-06-17T15:13:12.351Z,1.60
2018-06-17T15:15:39.949Z,1.50
2018-06-17T15:18:07.725Z,1.70
2018-06-17T15:20:35.249Z,1.63
2018-06-17T15:23:03.282Z,1.50
2018-06-17T15:25:30.901Z,1.37
2018-06-17T15:27:58.558Z,1.30
2018-06-17T15:30:26.066Z,1.80
2018-06-17T15:32:59.420Z,1.37
2018-06-17T15:35:33.123Z,1.83
2018-06-17T15:38:10.220Z,1.47
2018-06-17T15:40:43.350Z,1.60
2018-06-17T15:43:10.841Z,2.07
2018-06-17T15:45:38.323Z,1.90
2018-06-17T15:48:05.913Z,1.83
2018-06-17T15:50:33.462Z,1.37
2018-06-17T15:53:01.041Z,1.87
2018-06-17T15:55:28.549Z,2.00
2018-06-17T15:57:56.083Z,1.77
2018-06-17T16:00:23.611Z,1.73
2018-06-17T16:02:51.145Z,2.00
2018-06-17T16:05:18.690Z,1.63
2018-06-17T16:07:46.233Z,1.87
2018-06-17T16:10:13.731Z,2.17
2018-06-17T16:12:46.890Z,1.60
2018-06-17T16:15:20.165Z,2.00
2018-06-17T16:17:53.381Z,2.10
2018-06-17T16:20:26.485Z,1.60
2018-06-17T16:22:54.054Z,2.07
2018-06-17T16:25:21.578Z,1.77
2018-06-17T16:27:49.094Z,1.40
2018-06-17T16:30:16.625Z,1.60
2018-06-17T16:32:44.358Z,1.70
2018-06-17T16:35:11.893Z,1.70
2018-06-17T16:37:39.537Z,1.80
2018-06-17T16:40:07.040Z,1.70
2018-06-17T16:42:34.576Z,1.57
2018-06-17T16:45:02.091Z,1.30
2018-06-17T16:47:30.267Z,1.80
2018-06-17T16:49:57.836Z,2.00
2018-06-17T16:52:31.172Z,1.60
2018-06-17T16:55:02.340Z,1.70
2018-06-17T16:57:35.696Z,1.80
2018-06-17T17:00:08.662Z,1.77
2018-06-17T17:02:36.262Z,2.30
2018-06-17T17:05:03.786Z,1.87
2018-06-17T17:07:31.289Z,2.17
2018-06-17T17:09:59.021Z,1.63
2018-06-17T17:12:26.637Z,2.00
2018-06-17T17:14:54.754Z,1.60
2018-06-17T17:17:22.325Z,2.17
2018-06-17T17:19:49.945Z,2.17
2018-06-17T17:22:17.561Z,1.90
2018-06-17T17:24:45.142Z,1.63
2018-06-17T17:27:12.699Z,1.83
2018-06-17T17:29:40.432Z,1.40
2018-06-17T17:32:13.795Z,2.20
2018-06-17T17:34:47.047Z,1.80
2018-06-17T17:37:20.360Z,1.83
2018-06-17T17:39:53.658Z,1.40
2018-06-17T17:42:21.135Z,1.53
2018-06-17T17:45:03.685Z,1.40
2018-06-17T17:47:32.269Z,1.87
2018-06-17T17:49:59.777Z,1.57
2018-06-17T17:52:27.401Z,2.00
2018-06-17T17:54:55.014Z,1.20
2018-06-17T17:57:22.932Z,2.00
2018-06-17T17:59:50.679Z,1.63
2018-06-17T18:02:20.365Z,1.63
2018-06-17T18:04:47.916Z,1.57
2018-06-17T18:07:15.477Z,1.63
2018-06-17T18:09:43.142Z,1.20
2018-06-17T18:12:10.969Z,1.90
2018-06-17T18:14:39.902Z,1.53
2018-06-17T18:17:11.384Z,1.50
2018-06-17T18:19:39.041Z,1.57
2018-06-17T18:22:06.611Z,1.80
2018-06-17T18:24:34.220Z,1.30
2018-06-17T18:27:07.396Z,1.03
2018-06-17T18:29:40.493Z,1.53
2018-06-17T18:32:13.847Z,1.50
2018-06-17T18:34:47.069Z,1.97
2018-06-17T18:37:14.762Z,1.57
2018-06-17T18:39:42.319Z,1.27
2018-06-17T18:42:13.891Z,1.70
2018-06-17T18:44:41.409Z,1.63
2018-06-17T18:47:08.924Z,1.33
2018-06-17T18:49:36.486Z,1.60
2018-06-17T18:52:04.043Z,1.40
2018-06-17T18:54:31.549Z,1.50
2018-06-17T18:56:59.102Z,1.30
2018-06-17T18:59:26.826Z,1.43
2018-06-17T19:01:54.397Z,1.30
2018-06-17T19:04:21.993Z,1.10
2018-06-17T19:06:49.879Z,1.70
2018-06-17T19:09:24.466Z,1.90
2018-06-17T19:11:57.960Z,1.10
2018-06-17T19:14:31.087Z,1.40
2018-06-17T19:17:04.213Z,1.30
2018-06-17T19:19:32.043Z,1.00
2018-06-17T19:21:59.721Z,0.90
2018-06-17T19:24:27.216Z,1.20
2018-06-17T19:26:54.882Z,0.90
2018-06-17T19:29:22.552Z,0.70
2018-06-17T19:31:50.073Z,1.10
2018-06-17T19:34:17.625Z,1.00
2018-06-17T19:36:45.190Z,0.90
2018-06-17T19:39:12.733Z,0.90
2018-06-17T19:41:40.726Z,1.17
2018-06-17T19:44:08.282Z,1.53
2018-06-17T19:46:35.817Z,1.17
2018-06-17T19:49:03.421Z,1.23
2018-06-17T19:51:36.700Z,1.30
2018-06-17T19:54:10.399Z,1.03
2018-06-17T19:56:43.557Z,1.27
2018-06-17T19:59:16.745Z,0.87
2018-06-17T20:01:46.257Z,1.20
2018-06-17T20:04:13.777Z,1.30
2018-06-17T20:06:41.301Z,1.37
2018-06-17T20:09:10.288Z,1.40
2018-06-17T20:11:38.074Z,1.70
2018-06-17T20:14:09.468Z,1.60
2018-06-17T20:16:38.954Z,1.60
2018-06-17T20:19:06.579Z,1.30
2018-06-17T20:21:34.271Z,1.30
2018-06-17T20:24:01.832Z,1.30
2018-06-17T20:26:29.349Z,1.80
2018-06-17T20:28:56.877Z,1.80
2018-06-17T20:31:24.393Z,1.70
2018-06-17T20:33:57.598Z,2.50
2018-06-17T20:36:30.691Z,1.73
2018-06-17T20:39:03.986Z,1.30
2018-06-17T20:41:37.102Z,1.50
2018-06-17T20:44:04.829Z,1.70
2018-06-17T20:46:32.371Z,1.40
2018-06-17T20:48:59.877Z,1.40
2018-06-17T20:51:27.390Z,1.17
2018-06-17T20:53:54.962Z,1.30
2018-06-17T20:56:22.502Z,1.10
2018-06-17T20:58:50.143Z,1.40
2018-06-17T21:01:17.686Z,1.00
2018-06-17T21:03:45.198Z,1.17
2018-06-17T21:06:12.804Z,0.90
2018-06-17T21:08:40.386Z,1.40
2018-06-17T21:11:07.898Z,1.63
2018-06-17T21:13:35.533Z,1.40
2018-06-17T21:16:03.062Z,1.37
2018-06-17T21:18:36.176Z,1.20
2018-06-17T21:21:09.352Z,1.60
2018-06-17T21:23:42.682Z,2.07
2018-06-17T21:26:15.994Z,1.50
2018-06-17T21:28:43.795Z,1.60
2018-06-17T21:31:11.335Z,1.67
2018-06-17T21:33:39.871Z,1.87
2018-06-17T21:36:07.484Z,1.50
2018-06-17T21:38:35.076Z,1.47
2018-06-17T21:41:02.791Z,1.70
2018-06-17T21:43:31.681Z,1.53
2018-06-17T21:46:02.569Z,2.00
2018-06-17T21:48:31.108Z,2.03
2018-06-17T21:50:58.693Z,1.97
2018-06-17T21:53:26.526Z,1.67
2018-06-17T21:55:54.094Z,1.60
2018-06-17T21:58:27.349Z,1.47
2018-06-17T22:00:55.132Z,2.20
2018-06-17T22:03:22.780Z,2.30
2018-06-17T22:05:51.138Z,1.53
2018-06-17T22:08:25.147Z,1.77
2018-06-17T22:10:58.983Z,1.77
2018-06-17T22:13:31.219Z,1.10
2018-06-17T22:16:04.506Z,1.03
2018-06-17T22:18:32.788Z,1.60
2018-06-17T22:21:00.297Z,1.57
2018-06-17T22:23:27.854Z,1.80
2018-06-17T22:25:55.364Z,1.13
2018-06-17T22:28:22.913Z,1.13
2018-06-17T22:30:50.451Z,1.37
2018-06-17T22:33:17.946Z,1.40
2018-06-17T22:35:45.688Z,1.30
2018-06-17T22:38:13.857Z,1.40
2018-06-17T22:40:41.441Z,1.30
2018-06-17T22:43:08.969Z,1.27
2018-06-17T22:45:37.527Z,1.90
2018-06-17T22:48:07.318Z,1.10
2018-06-17T22:50:34.839Z,1.37
2018-06-17T22:53:14.466Z,0.90
2018-06-17T22:55:42.042Z,1.50
2018-06-17T22:58:16.225Z,1.73
2018-06-17T23:00:49.503Z,2.03
2018-06-17T23:03:22.725Z,2.07
2018-06-17T23:05:56.031Z,1.83
2018-06-17T23:08:30.340Z,2.03
2018-06-17T23:10:57.852Z,1.53
2018-06-17T23:13:25.569Z,1.87
2018-06-17T23:15:53.111Z,1.87
2018-06-17T23:18:20.848Z,2.53
2018-06-17T23:20:49.052Z,1.63
2018-06-17T23:23:16.717Z,1.93
2018-06-17T23:25:44.832Z,2.50
2018-06-17T23:28:12.655Z,2.13
2018-06-17T23:30:40.198Z,1.40
2018-06-17T23:33:07.831Z,1.90
2018-06-17T23:35:35.477Z,2.00
2018-06-17T23:38:02.965Z,2.10
2018-06-17T23:40:30.499Z,1.30
2018-06-17T23:42:58.258Z,1.80
2018-06-17T23:45:25.819Z,1.00
2018-06-17T23:47:59.855Z,1.70
2018-06-17T23:50:33.941Z,2.60
2018-06-17T23:53:07.357Z,1.60
2018-06-17T23:55:40.698Z,1.23
2018-06-17T23:58:08.199Z,2.30
